Terminal Aerodrome Forecast
Issued by NWS

Current Version | Previous Version | Graphics & Text | Print | Product List | Glossary On
Versions: 1 2 3 4 5 6 7 8 9 10 11 12 13 14
000
FTUS41 KRNK 172355
TAFLWB
TAF
KLWB 172355Z 1800/1824 VRB03KT P6SM VCSH SCT015 BKN030
     FM180100 00000KT P6SM BKN080 BKN200
     FM180500 00000KT 4SM BR SCT001
     FM180700 00000KT 1/4SM FG VV001
     FM181400 26005KT P6SM VCSH SCT012 OVC023
     FM181600 26006KT P6SM VCTS BKN035CB
     FM182000 27007KT P6SM BKN040=

USA.gov is the U.S. government's official web portal to all federal, state and local government web resources and services.